createdAt,value
2022-10-14T05:00:57.783Z,7.74
2022-10-14T05:03:34.361Z,7.72
2022-10-14T05:06:03.319Z,7.72
2022-10-14T05:08:32.075Z,7.68
2022-10-14T05:11:05.146Z,7.67
2022-10-14T05:13:39.297Z,7.63
2022-10-14T05:16:10.008Z,7.61
2022-10-14T05:18:39.894Z,7.57
2022-10-14T05:21:12.356Z,7.55
2022-10-14T05:24:02.026Z,7.50
2022-10-14T05:26:33.043Z,7.46
2022-10-14T05:29:04.037Z,7.45
2022-10-14T05:31:32.780Z,7.46
2022-10-14T05:34:12.101Z,7.46
2022-10-14T05:36:41.174Z,7.48
2022-10-14T05:39:09.476Z,7.53
2022-10-14T05:41:39.221Z,7.59
2022-10-14T05:44:08.570Z,7.63
2022-10-14T05:46:36.554Z,7.66
2022-10-14T05:49:07.428Z,7.70
2022-10-14T05:51:37.742Z,7.71
2022-10-14T05:54:13.862Z,7.70
2022-10-14T05:56:44.405Z,7.72
2022-10-14T05:59:13.546Z,7.73
2022-10-14T06:01:44.412Z,7.76
2022-10-14T06:04:20.327Z,7.79
2022-10-14T06:06:49.271Z,7.79
2022-10-14T06:09:18.265Z,7.80
2022-10-14T06:11:46.975Z,7.84
2022-10-14T06:14:17.251Z,7.88
2022-10-14T06:16:50.337Z,7.94
2022-10-14T06:19:19.386Z,8.04
2022-10-14T06:21:47.630Z,8.13
2022-10-14T06:24:16.507Z,8.22
2022-10-14T06:26:48.989Z,8.29
2022-10-14T06:29:18.481Z,8.37
2022-10-14T06:31:46.958Z,8.48
2022-10-14T06:34:19.158Z,8.56
2022-10-14T06:36:48.361Z,8.63
2022-10-14T06:39:17.250Z,8.70
2022-10-14T06:41:45.925Z,8.77
2022-10-14T06:44:21.576Z,8.81
2022-10-14T06:46:50.720Z,8.84
2022-10-14T06:49:19.414Z,8.85
2022-10-14T06:51:48.013Z,8.88
2022-10-14T06:54:17.267Z,8.92
2022-10-14T06:56:45.789Z,8.96
2022-10-14T06:59:14.427Z,9.01
2022-10-14T07:01:43.429Z,9.08
2022-10-14T07:04:12.430Z,9.16
2022-10-14T07:06:41.262Z,9.22
2022-10-14T07:09:10.126Z,9.26
2022-10-14T07:11:38.628Z,9.34
2022-10-14T07:14:07.311Z,9.45
2022-10-14T07:16:36.322Z,9.57
2022-10-14T07:19:05.183Z,9.69
2022-10-14T07:21:34.186Z,9.84
2022-10-14T07:24:02.961Z,9.97
2022-10-14T07:26:33.246Z,10.07
2022-10-14T07:29:02.128Z,10.16
2022-10-14T07:31:31.105Z,10.26
2022-10-14T07:34:04.087Z,10.36
2022-10-14T07:36:32.944Z,10.44
2022-10-14T07:39:01.889Z,10.48
2022-10-14T07:41:30.573Z,10.54
2022-10-14T07:44:03.613Z,10.60
2022-10-14T07:46:33.868Z,10.66
2022-10-14T07:49:06.782Z,10.72
2022-10-14T07:51:35.847Z,10.77
2022-10-14T07:54:10.034Z,10.82
2022-10-14T07:56:39.305Z,10.87
2022-10-14T07:59:10.898Z,10.95
2022-10-14T08:01:39.308Z,11.06
2022-10-14T08:04:07.477Z,11.18
2022-10-14T08:06:35.789Z,11.32
2022-10-14T08:09:05.357Z,11.45
2022-10-14T08:11:34.170Z,11.60
2022-10-14T08:14:03.143Z,11.73
2022-10-14T08:16:33.105Z,11.85
2022-10-14T08:19:06.085Z,11.93
2022-10-14T08:21:35.825Z,12.00
2022-10-14T08:24:04.692Z,12.05
2022-10-14T08:26:38.085Z,12.07
2022-10-14T08:29:07.911Z,12.09
2022-10-14T08:31:36.359Z,12.09
2022-10-14T08:34:04.816Z,12.09
2022-10-14T08:36:33.111Z,12.11
2022-10-14T08:39:02.107Z,12.16
2022-10-14T08:41:45.582Z,12.23
2022-10-14T08:44:18.421Z,12.30
2022-10-14T08:46:52.193Z,12.37
2022-10-14T08:49:24.157Z,12.48
2022-10-14T08:51:56.360Z,12.57
2022-10-14T08:54:41.797Z,12.64
2022-10-14T08:57:20.073Z,12.71
2022-10-14T08:59:49.113Z,12.77
2022-10-14T09:02:24.165Z,12.82
2022-10-14T09:04:52.938Z,12.87
2022-10-14T09:07:22.151Z,12.93
2022-10-14T09:09:54.006Z,13.00
2022-10-14T09:12:26.290Z,13.06
2022-10-14T09:15:10.212Z,13.11
2022-10-14T09:17:46.031Z,13.17
2022-10-14T09:20:22.942Z,13.23
2022-10-14T09:23:06.724Z,13.30
2022-10-14T09:25:35.894Z,13.37
2022-10-14T09:28:04.799Z,13.45
2022-10-14T09:30:36.681Z,13.55
2022-10-14T09:33:06.029Z,13.64
2022-10-14T09:35:39.228Z,13.71
2022-10-14T09:38:08.318Z,13.80
2022-10-14T09:40:40.111Z,13.90
2022-10-14T09:43:08.319Z,13.99
2022-10-14T09:45:55.809Z,14.08
2022-10-14T09:48:43.307Z,14.17
2022-10-14T09:51:21.007Z,14.25
2022-10-14T09:53:59.907Z,14.33
2022-10-14T09:56:41.794Z,14.40
2022-10-14T09:59:23.367Z,14.43
2022-10-14T10:02:06.250Z,14.46
2022-10-14T10:04:37.421Z,14.50
2022-10-14T10:07:07.946Z,14.54
2022-10-14T10:09:36.768Z,14.54
2022-10-14T10:12:48.113Z,14.52
2022-10-14T10:15:22.035Z,14.49
2022-10-14T10:17:51.651Z,14.46
2022-10-14T10:20:36.202Z,14.43
2022-10-14T10:23:37.682Z,14.40
2022-10-14T10:26:16.355Z,14.38
2022-10-14T10:28:46.737Z,14.33
2022-10-14T10:31:35.688Z,14.28
2022-10-14T10:34:04.578Z,14.22
2022-10-14T10:36:38.282Z,14.20
2022-10-14T10:39:15.936Z,14.19
2022-10-14T10:42:01.294Z,14.20
2022-10-14T10:44:30.025Z,14.22
2022-10-14T10:47:13.510Z,14.26
2022-10-14T10:50:00.817Z,14.32
2022-10-14T10:52:38.220Z,14.38
2022-10-14T10:55:12.858Z,14.43
2022-10-14T10:57:47.860Z,14.47
2022-10-14T11:00:21.828Z,14.53
2022-10-14T11:02:55.703Z,14.59
2022-10-14T11:05:38.540Z,14.65
2022-10-14T11:08:46.022Z,14.69
2022-10-14T11:12:06.906Z,14.73
2022-10-14T11:14:39.021Z,14.76
2022-10-14T11:17:14.966Z,14.77
2022-10-14T11:19:47.102Z,14.77
2022-10-14T11:22:29.740Z,14.77
2022-10-14T11:25:04.339Z,14.73
2022-10-14T11:27:46.441Z,14.73
2022-10-14T11:30:15.843Z,14.76
2022-10-14T11:32:57.643Z,14.81
2022-10-14T11:35:29.085Z,14.88
2022-10-14T11:38:04.317Z,14.93
2022-10-14T11:40:41.992Z,15.00
2022-10-14T11:43:10.378Z,15.09
2022-10-14T11:45:39.598Z,15.14
2022-10-14T11:48:11.169Z,15.17
2022-10-14T11:50:42.293Z,15.19
2022-10-14T11:53:13.495Z,15.19
2022-10-14T11:55:44.526Z,15.19
2022-10-14T11:58:15.972Z,15.18
2022-10-14T12:00:46.732Z,15.17
2022-10-14T12:03:32.471Z,15.16
2022-10-14T12:06:04.681Z,15.14
2022-10-14T12:08:46.296Z,15.14
2022-10-14T12:11:18.813Z,15.14
2022-10-14T12:13:55.070Z,15.13
2022-10-14T12:16:24.524Z,15.11
2022-10-14T12:18:57.434Z,15.09
2022-10-14T12:21:36.627Z,15.08
2022-10-14T12:24:07.514Z,15.06
2022-10-14T12:26:48.587Z,15.06
2022-10-14T12:29:20.850Z,15.05
2022-10-14T12:31:51.657Z,15.05
2022-10-14T12:34:29.005Z,15.04
2022-10-14T12:36:57.815Z,15.03
2022-10-14T12:39:31.705Z,15.02
2022-10-14T12:42:15.440Z,15.01
2022-10-14T12:44:50.254Z,15.01
2022-10-14T12:47:19.738Z,15.00
2022-10-14T12:49:50.813Z,14.99
2022-10-14T12:52:22.855Z,14.98
2022-10-14T12:54:54.734Z,14.98
2022-10-14T12:57:31.693Z,14.97
2022-10-14T13:00:02.830Z,14.96
2022-10-14T13:02:36.641Z,14.95
2022-10-14T13:05:09.895Z,14.95
2022-10-14T13:07:41.093Z,14.96
2022-10-14T13:10:32.044Z,14.98
2022-10-14T13:13:01.161Z,15.01
2022-10-14T13:15:34.991Z,15.04
2022-10-14T13:18:22.787Z,15.09
2022-10-14T13:20:52.579Z,15.15
2022-10-14T13:23:40.935Z,15.19
2022-10-14T13:26:12.582Z,15.24
2022-10-14T13:28:53.823Z,15.27
2022-10-14T13:31:27.527Z,15.29
2022-10-14T13:34:12.245Z,15.29
2022-10-14T13:36:54.201Z,15.28
2022-10-14T13:39:23.245Z,15.23
2022-10-14T13:41:52.908Z,15.21
2022-10-14T13:44:22.302Z,15.19
2022-10-14T13:46:51.350Z,15.16
2022-10-14T13:49:28.309Z,15.14
2022-10-14T13:51:56.931Z,15.11
2022-10-14T13:54:26.126Z,15.09
2022-10-14T14:02:42.997Z,15.02
2022-10-14T14:05:16.594Z,14.99
2022-10-14T14:10:39.098Z,14.94
2022-10-14T14:13:13.049Z,14.92
2022-10-14T14:15:42.939Z,14.90
2022-10-14T14:18:33.886Z,14.87
2022-10-14T14:21:13.324Z,14.84
2022-10-14T14:23:59.013Z,14.79
2022-10-14T14:26:34.994Z,14.72
2022-10-14T14:29:07.869Z,14.67
2022-10-14T14:32:05.084Z,14.61
2022-10-14T14:34:28.739Z,14.55
2022-10-14T14:37:10.980Z,14.50
2022-10-14T14:40:01.289Z,14.45
2022-10-14T14:42:32.826Z,14.42
2022-10-14T14:45:07.485Z,14.41
2022-10-14T14:47:36.309Z,14.41
2022-10-14T14:50:29.031Z,14.44
2022-10-14T14:55:37.758Z,14.56
2022-10-14T14:58:14.871Z,14.63
2022-10-14T15:00:45.772Z,14.69
2022-10-14T15:03:14.377Z,14.72
2022-10-14T15:05:49.129Z,14.74
2022-10-14T15:08:25.614Z,14.73
2022-10-14T15:10:57.520Z,14.72
2022-10-14T15:13:46.660Z,14.69
2022-10-14T15:16:32.562Z,14.65
2022-10-14T15:19:14.532Z,14.61
2022-10-14T15:21:47.971Z,14.57
2022-10-14T15:24:18.838Z,14.52
2022-10-14T15:26:47.880Z,14.46
2022-10-14T15:32:08.001Z,14.33
2022-10-14T15:34:38.538Z,14.23
2022-10-14T15:37:07.354Z,14.14
2022-10-14T15:39:36.192Z,14.06
2022-10-14T15:42:10.015Z,13.99
2022-10-14T15:44:40.893Z,13.91
2022-10-14T15:47:22.291Z,13.86
2022-10-14T15:49:54.031Z,13.81
2022-10-14T15:52:26.138Z,13.79
2022-10-14T15:54:57.922Z,13.77
2022-10-14T15:57:27.087Z,13.74
2022-10-14T15:59:55.458Z,13.72
2022-10-14T16:02:31.343Z,13.68
2022-10-14T16:07:48.717Z,13.58
2022-10-14T16:10:19.373Z,13.51
2022-10-14T16:12:48.283Z,13.44
2022-10-14T16:15:35.127Z,13.38
2022-10-14T16:18:03.413Z,13.29
2022-10-14T16:20:31.990Z,13.21
2022-10-14T16:23:01.685Z,13.13
2022-10-14T16:25:33.188Z,13.08
2022-10-14T16:28:05.279Z,13.03
2022-10-14T16:30:37.489Z,13.00
2022-10-14T16:33:06.571Z,12.98
2022-10-14T16:35:34.752Z,13.00
2022-10-14T16:38:03.476Z,13.02
2022-10-14T16:40:36.580Z,13.03
2022-10-14T16:43:07.775Z,13.05
2022-10-14T16:45:37.233Z,13.06
2022-10-14T16:48:06.355Z,13.06
2022-10-14T16:50:35.360Z,13.04
2022-10-14T16:53:22.639Z,12.99
2022-10-14T16:55:52.059Z,12.90
2022-10-14T16:58:20.518Z,12.81
2022-10-14T17:00:49.451Z,12.73
2022-10-14T17:03:18.652Z,12.68
2022-10-14T17:05:48.286Z,12.62
2022-10-14T17:08:19.045Z,12.59
2022-10-14T17:10:49.383Z,12.60
2022-10-14T17:13:18.646Z,12.61
2022-10-14T17:15:48.082Z,12.64
2022-10-14T17:18:18.012Z,12.67
2022-10-14T17:20:46.347Z,12.70
2022-10-14T17:23:14.568Z,12.73
2022-10-14T17:25:47.525Z,12.73
2022-10-14T17:28:16.232Z,12.72
2022-10-14T17:30:44.585Z,12.68
2022-10-14T17:33:13.644Z,12.64
2022-10-14T17:35:42.530Z,12.60
2022-10-14T17:38:11.011Z,12.56
2022-10-14T17:40:39.654Z,12.52
2022-10-14T17:43:08.725Z,12.50
2022-10-14T17:45:38.886Z,12.49
2022-10-14T17:48:07.826Z,12.49
2022-10-14T17:50:36.529Z,12.51
2022-10-14T17:53:04.778Z,12.56
2022-10-14T17:55:35.145Z,12.63
2022-10-14T17:58:03.965Z,12.70
2022-10-14T18:00:32.138Z,12.78
2022-10-14T18:03:00.714Z,12.86
2022-10-14T18:05:30.743Z,12.92
2022-10-14T18:07:59.305Z,12.93
2022-10-14T18:10:27.984Z,12.92
2022-10-14T18:12:58.250Z,12.91
2022-10-14T18:15:27.743Z,12.89
2022-10-14T18:17:59.757Z,12.87
2022-10-14T18:20:28.170Z,12.84
2022-10-14T18:22:56.631Z,12.80
2022-10-14T18:25:25.600Z,12.78
2022-10-14T18:27:54.275Z,12.77
2022-10-14T18:30:22.483Z,12.77
2022-10-14T18:32:54.556Z,12.78
2022-10-14T18:35:22.836Z,12.81
2022-10-14T18:37:51.595Z,12.85
2022-10-14T18:40:22.146Z,12.90
2022-10-14T18:42:51.433Z,12.95
2022-10-14T18:45:19.860Z,13.00
2022-10-14T18:47:48.897Z,13.05
2022-10-14T18:50:17.459Z,13.09
2022-10-14T18:52:46.341Z,13.11
2022-10-14T18:55:14.992Z,13.12
2022-10-14T18:57:43.822Z,13.10
2022-10-14T19:00:14.322Z,13.08
2022-10-14T19:02:43.312Z,13.06
2022-10-14T19:05:12.067Z,13.04
2022-10-14T19:07:41.052Z,13.02
2022-10-14T19:10:10.122Z,13.00
2022-10-14T19:12:41.711Z,12.97
2022-10-14T19:15:11.598Z,12.95
2022-10-14T19:17:40.451Z,12.94
2022-10-14T19:20:08.690Z,12.94
2022-10-14T19:22:41.380Z,12.94
2022-10-14T19:25:09.705Z,12.96
2022-10-14T19:27:38.520Z,12.98
2022-10-14T19:30:07.236Z,13.00
2022-10-14T19:32:36.560Z,13.03
2022-10-14T19:35:05.396Z,13.05
2022-10-14T19:37:33.602Z,13.05
2022-10-14T19:40:01.792Z,13.04
2022-10-14T19:42:30.609Z,13.03
2022-10-14T19:44:59.847Z,13.02
2022-10-14T19:47:28.577Z,13.00
2022-10-14T19:49:57.067Z,12.97
2022-10-14T19:52:26.108Z,12.93
2022-10-14T19:54:55.096Z,12.90
2022-10-14T19:57:23.704Z,12.89
2022-10-14T19:59:52.593Z,12.89
2022-10-14T20:02:21.383Z,12.88
2022-10-14T20:04:53.833Z,12.89
2022-10-14T20:07:22.286Z,12.92
2022-10-14T20:09:50.888Z,12.95
2022-10-14T20:12:19.713Z,12.97
2022-10-14T20:14:50.109Z,12.99
2022-10-14T20:19:53.177Z,12.99
2022-10-14T20:22:21.781Z,12.98
2022-10-14T20:24:50.791Z,12.95
2022-10-14T20:27:19.409Z,12.93
2022-10-14T20:29:48.935Z,12.89
2022-10-14T20:32:18.188Z,12.85
2022-10-14T20:34:47.987Z,12.82
2022-10-14T20:37:17.170Z,12.79
2022-10-14T20:39:46.323Z,12.78
2022-10-14T20:42:15.130Z,12.78
2022-10-14T20:44:43.301Z,12.78
2022-10-14T20:47:12.470Z,12.80
2022-10-14T20:49:42.845Z,12.84
2022-10-14T20:52:11.959Z,12.88
2022-10-14T20:54:43.285Z,12.90
2022-10-14T20:57:11.893Z,12.90
2022-10-14T20:59:43.126Z,12.89
2022-10-14T21:02:19.315Z,12.85
2022-10-14T21:04:48.466Z,12.81
2022-10-14T21:07:18.253Z,12.75
2022-10-14T21:09:48.003Z,12.69
2022-10-14T21:12:17.088Z,12.64
2022-10-14T21:14:46.661Z,12.59
2022-10-14T21:17:15.462Z,12.57
2022-10-14T21:19:43.924Z,12.54
2022-10-14T21:22:16.386Z,12.52
2022-10-14T21:24:44.542Z,12.50
2022-10-14T21:27:12.786Z,12.49
2022-10-14T21:29:41.520Z,12.49
2022-10-14T21:32:09.820Z,12.46
2022-10-14T21:34:38.326Z,12.45
2022-10-14T21:37:07.079Z,12.42
2022-10-14T21:39:36.391Z,12.39
2022-10-14T21:42:05.443Z,12.36
2022-10-14T21:44:33.559Z,12.32
2022-10-14T21:47:02.283Z,12.28
2022-10-14T21:49:30.330Z,12.23
2022-10-14T21:51:58.816Z,12.19
2022-10-14T21:54:27.192Z,12.16
2022-10-14T21:59:25.554Z,12.13
2022-10-14T22:01:56.741Z,12.15
2022-10-14T22:04:27.313Z,12.17
2022-10-14T22:06:55.695Z,12.19
2022-10-14T22:09:24.149Z,12.21
2022-10-14T22:11:54.034Z,12.21
2022-10-14T22:14:22.258Z,12.18
2022-10-14T22:16:50.394Z,12.15
2022-10-14T22:19:18.591Z,12.10
2022-10-14T22:21:47.909Z,12.04
2022-10-14T22:24:16.850Z,11.97
2022-10-14T22:26:45.272Z,11.92
2022-10-14T22:29:15.325Z,11.88
2022-10-14T22:31:44.121Z,11.85
2022-10-14T22:34:13.555Z,11.84
2022-10-14T22:36:42.424Z,11.82
2022-10-14T22:39:12.801Z,11.82
2022-10-14T22:41:41.127Z,11.86
2022-10-14T22:44:10.578Z,11.91
2022-10-14T22:46:39.473Z,11.92
2022-10-14T22:49:07.827Z,11.90
2022-10-14T22:51:42.937Z,11.91
2022-10-14T22:54:11.251Z,11.92
2022-10-14T22:56:41.129Z,11.94
2022-10-14T22:59:11.380Z,11.94
2022-10-14T23:01:41.255Z,11.94
2022-10-14T23:04:11.385Z,11.96
2022-10-14T23:06:40.292Z,11.99
2022-10-14T23:09:09.024Z,12.03
2022-10-14T23:11:37.379Z,12.08
2022-10-14T23:14:07.136Z,12.13
2022-10-14T23:16:36.361Z,12.14
2022-10-14T23:19:04.818Z,12.12
2022-10-14T23:21:34.489Z,12.11
2022-10-14T23:24:04.704Z,12.09
2022-10-14T23:26:34.842Z,12.06
2022-10-14T23:29:06.504Z,12.03
2022-10-14T23:31:35.761Z,12.01
2022-10-14T23:34:05.893Z,12.00
2022-10-14T23:36:34.211Z,12.01
2022-10-14T23:39:02.357Z,12.04
2022-10-14T23:41:30.548Z,12.06
2022-10-14T23:43:58.632Z,12.10
2022-10-14T23:46:27.062Z,12.14
2022-10-14T23:49:06.752Z,12.17
2022-10-14T23:51:35.958Z,12.18
2022-10-14T23:54:04.597Z,12.17
2022-10-14T23:56:32.729Z,12.13
2022-10-14T23:59:01.399Z,12.07
